Impacts TAF Board
For situational awareness. Not to be used for flight planning purposes.
IDs:

KDTW - Detroit Metro/Wayne, MI, US

Issued at 1720 UTC 13 Nov 2019
Updated at 1948 UTC 13 Nov 2019
Potential Impact None Slight Moderate High
Time<<14/20Z 14/21Z 14/22Z 14/23Z 15/00Z 15/01Z 15/02Z 15/03Z 15/04Z 15/05Z 15/06Z 15/07Z 15/08Z
Type PRVL PRVL PRVL PRVL
VIS 5 5 5 5
CIG 20 20 20 20
Cover OVC OVC OVC OVC
FltCat MVFR MVFR MVFR MVFR
WX BR BR BR BR
WDir 230 230 230 230
WSpd 6 6 6 6
WGst -- -- -- --
Raw TAF
KDTW 131720Z 1318/1424 19011KT P6SM OVC120
  FM140200 20007KT P6SM OVC060
  FM142000 23006KT 5SM BR OVC020


METAR Board
Radar Display
Forecast Discussion
For situational awareness. Not to be used for flight planning purposes.